Time;durP1;ratioP1;P1;durP2;ratioP2;P2;SDS_P1;SDS_P2;PMS_P1;PMS_P2;Temp;Humidity;BMP_temperature;BMP_pressure;BME280_temperature;BME280_humidity;BME280_pressure;Samples;Min_cycle;Max_cycle;Signal;HPM_P1;HPM_P2
2023/08/27 00:00:17;;;;;;;7.05;4.70;;;;;;;24.45;nan;62277.63;5033947;28;20209;-65
2023/08/27 00:02:42;;;;;;;7.28;5.18;;;;;;;24.35;nan;62269.41;5033728;28;20193;-65
2023/08/27 00:05:09;;;;;;;7.38;4.78;;;;;;;24.43;nan;62442.53;5032504;28;20175;-65
2023/08/27 00:07:35;;;;;;;9.27;4.60;;;;;;;24.18;nan;62116.81;5033497;28;20227;-65
2023/08/27 00:10:01;;;;;;;8.95;5.13;;;;;;;24.20;nan;62252.28;5034119;28;20170;-65
2023/08/27 00:12:27;;;;;;;7.47;4.43;;;;;;;24.31;nan;62118.56;5033669;28;20561;-65
2023/08/27 00:14:53;;;;;;;7.50;4.90;;;;;;;24.13;nan;62106.44;5033737;28;20171;-65
2023/08/27 00:17:19;;;;;;;7.40;4.55;;;;;;;24.28;nan;62159.53;5034325;28;20265;-65
2023/08/27 00:19:44;;;;;;;8.60;4.57;;;;;;;24.06;nan;62129.22;5034077;28;20195;-65
2023/08/27 00:22:10;;;;;;;10.23;4.68;;;;;;;24.23;nan;62176.78;5034025;28;20179;-65
2023/08/27 00:24:35;;;;;;;7.00;4.57;;;;;;;24.01;nan;62118.88;5033742;28;20580;-65
2023/08/27 00:27:01;;;;;;;7.25;4.35;;;;;;;24.05;nan;62133.31;5033620;28;20186;-65
2023/08/27 00:29:26;;;;;;;8.02;4.82;;;;;;;23.98;nan;62222.50;5033545;28;20211;-65
2023/08/27 00:31:51;;;;;;;11.32;5.68;;;;;;;23.93;nan;62088.31;5033531;28;20202;-65
2023/08/27 00:34:17;;;;;;;6.10;4.15;;;;;;;24.11;nan;62197.59;5033874;28;20183;-65
2023/08/27 00:36:43;;;;;;;6.85;4.70;;;;;;;24.03;nan;62089.28;5033772;28;20217;-65
2023/08/27 00:39:08;;;;;;;8.10;4.45;;;;;;;23.92;nan;62361.28;5033534;28;20677;-65
2023/08/27 00:41:33;;;;;;;7.65;4.88;;;;;;;23.98;nan;62340.00;5033342;28;20175;-65
2023/08/27 00:43:59;;;;;;;7.93;4.97;;;;;;;23.98;nan;62110.25;5033294;28;20213;-65
2023/08/27 00:46:24;;;;;;;11.05;4.20;;;;;;;23.97;nan;62108.53;5033381;28;20600;-65
2023/08/27 00:48:50;;;;;;;7.22;4.38;;;;;;;23.99;nan;62121.84;5033771;28;20170;-65
2023/08/27 00:51:16;;;;;;;7.63;4.63;;;;;;;23.98;nan;62120.69;5033506;28;20167;-65
2023/08/27 00:53:41;;;;;;;7.85;4.97;;;;;;;23.93;nan;62101.38;5033650;28;20168;-65
2023/08/27 00:56:08;;;;;;;6.47;4.70;;;;;;;23.71;nan;62061.81;5032263;28;20179;-65
2023/08/27 00:58:33;;;;;;;7.25;4.50;;;;;;;23.88;nan;62192.84;5033148;28;20206;-65
2023/08/27 01:00:59;;;;;;;8.63;4.90;;;;;;;23.80;nan;62115.28;5033177;28;20179;-66
2023/08/27 01:03:25;;;;;;;9.07;5.07;;;;;;;23.65;nan;62117.59;5033074;28;20177;-65
2023/08/27 01:05:51;;;;;;;8.65;4.78;;;;;;;23.80;nan;62063.66;5032940;28;20255;-65
2023/08/27 01:08:31;;;;;;;7.95;4.90;;;;;;;23.83;nan;62139.56;5032397;28;20659;-65
2023/08/27 01:11:16;;;;;;;7.38;4.85;;;;;;;23.74;nan;62127.84;5033125;28;20646;-65
2023/08/27 01:13:52;;;;;;;8.38;4.65;;;;;;;23.62;nan;62161.16;5033398;28;20174;-65
2023/08/27 01:16:20;;;;;;;9.48;5.00;;;;;;;23.83;nan;62189.16;5033208;28;20167;-65
2023/08/27 01:18:47;;;;;;;7.55;4.85;;;;;;;23.73;nan;62197.19;5032994;28;20191;-65
2023/08/27 01:21:22;;;;;;;8.40;5.10;;;;;;;23.58;nan;62284.44;5032669;28;20591;-65
2023/08/27 01:23:48;;;;;;;7.80;4.78;;;;;;;23.47;nan;62044.94;5032496;28;20178;-65
2023/08/27 01:26:25;;;;;;;7.72;4.90;;;;;;;23.62;nan;62077.09;5032754;28;20168;-65
2023/08/27 01:28:59;;;;;;;8.98;4.93;;;;;;;23.57;nan;62087.06;5033113;28;20178;-65
2023/08/27 01:31:30;;;;;;;9.77;4.80;;;;;;;23.32;nan;62147.81;5032351;28;20159;-65
2023/08/27 01:33:59;;;;;;;8.68;5.18;;;;;;;23.46;nan;62071.91;5030734;28;20183;-65
2023/08/27 01:36:25;;;;;;;7.32;4.85;;;;;;;23.28;nan;62088.47;5032153;28;20172;-65
2023/08/27 01:38:50;;;;;;;7.57;5.22;;;;;;;23.28;nan;61937.25;5031883;28;20199;-65
2023/08/27 01:41:16;;;;;;;8.90;5.20;;;;;;;23.36;nan;62040.22;5031538;28;20536;-65
2023/08/27 01:43:41;;;;;;;7.80;5.15;;;;;;;23.14;nan;61976.66;5040395;28;20182;-65
2023/08/27 01:46:07;;;;;;;7.63;5.13;;;;;;;23.25;nan;62285.84;5033276;28;20179;-65
2023/08/27 01:48:32;;;;;;;7.88;4.80;;;;;;;23.13;nan;62014.03;5031458;28;20737;-65
2023/08/27 01:50:58;;;;;;;9.48;5.20;;;;;;;23.07;nan;62007.22;5031500;28;20233;-65
2023/08/27 01:53:23;;;;;;;10.90;5.35;;;;;;;23.22;nan;62066.00;5031777;28;20646;-65
2023/08/27 01:55:48;;;;;;;8.63;5.05;;;;;;;23.06;nan;61959.75;5031857;28;20630;-65
2023/08/27 01:58:14;;;;;;;7.30;4.88;;;;;;;23.05;nan;61973.66;5031317;28;20179;-65
2023/08/27 02:00:39;;;;;;;9.48;4.90;;;;;;;23.27;nan;62113.41;5031605;28;20646;-65
2023/08/27 02:03:06;;;;;;;7.78;4.75;;;;;;;23.24;nan;62126.22;5031609;28;20171;-66
2023/08/27 02:05:31;;;;;;;11.43;5.13;;;;;;;23.13;nan;61914.97;5030790;28;20163;-65
2023/08/27 02:07:56;;;;;;;8.40;4.68;;;;;;;23.23;nan;61991.53;5031145;28;20229;-65
2023/08/27 02:10:22;;;;;;;8.90;5.03;;;;;;;23.23;nan;62035.84;5029677;28;20181;-65
2023/08/27 02:12:47;;;;;;;8.10;5.18;;;;;;;23.29;nan;62048.47;5029407;28;20788;-65
2023/08/27 02:15:13;;;;;;;7.88;4.97;;;;;;;23.09;nan;62064.81;5029898;28;20557;-65
2023/08/27 02:17:38;;;;;;;11.18;5.30;;;;;;;23.33;nan;62021.16;5029933;28;20273;-65
2023/08/27 02:20:08;;;;;;;8.27;5.28;;;;;;;23.31;nan;62047.56;5028433;28;20191;-65
2023/08/27 02:22:34;;;;;;;7.78;5.18;;;;;;;23.29;nan;62071.94;5031586;28;20609;-65
2023/08/27 02:24:59;;;;;;;10.65;5.05;;;;;;;23.14;nan;62009.97;5031097;28;20174;-65
2023/08/27 02:27:25;;;;;;;7.85;5.07;;;;;;;23.34;nan;62022.88;5032122;28;20250;-65
2023/08/27 02:29:50;;;;;;;13.40;5.00;;;;;;;23.35;nan;62284.78;5031905;28;20172;-65
2023/08/27 02:32:15;;;;;;;9.88;5.47;;;;;;;23.37;nan;62088.31;5031503;28;20187;-66
2023/08/27 02:34:41;;;;;;;8.02;4.88;;;;;;;23.33;nan;62271.53;5031650;28;20266;-65
2023/08/27 02:37:06;;;;;;;8.55;5.07;;;;;;;23.34;nan;62071.84;5031850;28;20250;-65
2023/08/27 02:39:32;;;;;;;6.97;5.10;;;;;;;23.14;nan;61989.69;5031904;28;20234;-65
2023/08/27 02:41:57;;;;;;;9.05;5.05;;;;;;;23.14;nan;62030.81;5031851;28;20568;-65
2023/08/27 02:44:23;;;;;;;8.68;5.28;;;;;;;23.06;nan;62009.25;5031701;28;20175;-65
2023/08/27 02:46:48;;;;;;;7.55;5.20;;;;;;;23.08;nan;62001.09;5031704;28;20164;-65
2023/08/27 02:49:14;;;;;;;8.25;5.03;;;;;;;23.00;nan;62046.75;5032043;28;20174;-65
2023/08/27 02:51:39;;;;;;;7.32;4.95;;;;;;;22.89;nan;61972.25;5031774;28;20190;-65
2023/08/27 02:54:05;;;;;;;10.05;6.00;;;;;;;22.72;nan;61921.66;5031820;28;20199;-65
2023/08/27 02:56:31;;;;;;;7.90;4.65;;;;;;;22.87;nan;62233.19;5031351;28;20203;-65
2023/08/27 02:58:56;;;;;;;7.57;5.35;;;;;;;22.92;nan;61990.72;5031612;28;20266;-66
2023/08/27 03:01:21;;;;;;;12.02;5.90;;;;;;;22.84;nan;61997.81;5031412;28;20182;-66
2023/08/27 03:03:47;;;;;;;8.52;5.53;;;;;;;20.04;nan;62193.56;5034406;28;20191;-66
2023/08/27 03:06:13;;;;;;;10.98;5.28;;;;;;;22.83;nan;61905.50;5031318;28;20187;-66
2023/08/27 03:08:39;;;;;;;7.95;5.45;;;;;;;22.63;nan;62061.91;5031564;28;20175;-66
2023/08/27 03:11:04;;;;;;;8.88;5.40;;;;;;;22.76;nan;62118.44;5031773;28;20172;-66
2023/08/27 03:13:29;;;;;;;9.20;5.38;;;;;;;22.66;nan;61987.75;5030506;28;20565;-65
2023/08/27 03:15:55;;;;;;;10.93;5.55;;;;;;;22.61;nan;61934.63;5031241;28;20175;-66
2023/08/27 03:18:20;;;;;;;15.35;5.80;;;;;;;22.35;nan;61863.97;5031382;28;20171;-66
2023/08/27 03:20:46;;;;;;;10.57;5.90;;;;;;;22.34;nan;61886.25;5035756;28;20254;-66
2023/08/27 03:23:11;;;;;;;7.38;5.15;;;;;;;22.44;nan;61916.44;5034651;28;20160;-66
2023/08/27 03:25:37;;;;;;;9.70;5.40;;;;;;;;;;5035091;28;20322;-64
2023/08/27 03:28:02;;;;;;;10.95;6.03;;;;;;;22.34;nan;61935.72;5034603;28;20175;-64
2023/08/27 03:30:28;;;;;;;7.85;5.50;;;;;;;22.16;nan;61977.75;5035046;28;20187;-66
2023/08/27 03:32:53;;;;;;;10.27;5.65;;;;;;;22.17;nan;61866.97;5034653;28;20182;-66
2023/08/27 03:35:19;;;;;;;8.48;5.15;;;;;;;22.11;nan;61850.28;5034886;28;20642;-67
2023/08/27 03:37:44;;;;;;;8.23;5.03;;;;;;;21.90;nan;61834.25;5034702;28;20222;-66
2023/08/27 03:40:10;;;;;;;10.13;6.03;;;;;;;21.90;nan;61811.41;5034723;28;20298;-64
2023/08/27 03:42:35;;;;;;;8.32;5.65;;;;;;;21.90;nan;61787.41;5034575;28;20266;-66
2023/08/27 03:45:01;;;;;;;9.02;5.65;;;;;;;21.66;nan;61807.00;5034276;28;20171;-64
2023/08/27 03:47:27;;;;;;;8.77;5.78;;;;;;;21.82;nan;61940.19;5034573;28;20176;-66
2023/08/27 03:49:52;;;;;;;8.68;5.82;;;;;;;21.75;nan;61796.41;5034504;28;20270;-66
2023/08/27 03:52:18;;;;;;;7.63;5.47;;;;;;;21.91;nan;61851.56;5034467;28;20179;-66
2023/08/27 03:54:43;;;;;;;10.10;5.72;;;;;;;22.00;nan;61986.13;5033734;28;20160;-66
2023/08/27 03:57:09;;;;;;;8.95;5.72;;;;;;;22.34;nan;61925.31;5034088;28;20175;-64
2023/08/27 03:59:34;;;;;;;9.75;5.97;;;;;;;22.32;nan;61910.03;5034121;28;20213;-64
2023/08/27 04:02:00;;;;;;;8.88;5.85;;;;;;;22.54;nan;61869.94;5033868;28;20171;-64
2023/08/27 04:04:26;;;;;;;9.05;5.85;;;;;;;23.01;nan;62026.47;5034090;28;20234;-65
2023/08/27 04:06:51;;;;;;;8.90;5.70;;;;;;;23.31;nan;62154.47;5034274;28;20219;-65
2023/08/27 04:09:18;;;;;;;9.38;5.65;;;;;;;23.74;nan;62208.19;5034196;28;20261;-65
2023/08/27 04:11:43;;;;;;;11.20;5.97;;;;;;;23.98;nan;62219.91;5034309;28;20765;-65
2023/08/27 04:14:09;;;;;;;9.27;5.65;;;;;;;24.77;nan;62246.19;5033661;28;20168;-65
2023/08/27 04:16:34;;;;;;;8.25;5.45;;;;;;;25.17;nan;62327.88;5034252;28;20164;-65
2023/08/27 04:18:59;;;;;;;9.63;6.32;;;;;;;25.34;nan;62260.94;5033630;28;20674;-65
2023/08/27 04:21:25;;;;;;;8.88;6.15;;;;;;;25.55;nan;62417.25;5033975;28;20171;-65
2023/08/27 04:23:51;;;;;;;10.65;5.93;;;;;;;25.87;nan;62360.13;5034086;28;20646;-65
2023/08/27 04:26:18;;;;;;;11.20;5.90;;;;;;;25.85;nan;62355.22;5033583;28;20202;-65
2023/08/27 04:28:43;;;;;;;9.05;5.90;;;;;;;26.16;nan;62539.41;5033665;28;20178;-65
2023/08/27 04:31:09;;;;;;;10.32;5.95;;;;;;;26.12;nan;62434.69;5033283;28;20175;-65
2023/08/27 04:33:34;;;;;;;8.98;5.82;;;;;;;26.00;nan;62599.66;5033736;28;20233;-65
2023/08/27 04:35:59;;;;;;;10.32;6.18;;;;;;;25.93;nan;62516.28;5033804;28;20174;-65
2023/08/27 04:38:25;;;;;;;10.38;6.38;;;;;;;25.71;nan;62383.19;5033287;28;20176;-65
2023/08/27 04:40:51;;;;;;;10.48;6.18;;;;;;;25.43;nan;62281.13;5033147;28;20168;-66
2023/08/27 04:43:17;;;;;;;8.63;5.68;;;;;;;25.33;nan;62288.59;5033296;28;20218;-65
2023/08/27 04:45:43;;;;;;;10.55;6.28;;;;;;;25.14;nan;62402.94;5033292;28;20191;-65
2023/08/27 04:48:08;;;;;;;10.13;6.32;;;;;;;24.85;nan;62189.94;5033695;28;20245;-65
2023/08/27 04:50:34;;;;;;;9.73;6.20;;;;;;;24.82;nan;62209.50;5033162;28;20171;-65
2023/08/27 04:53:00;;;;;;;11.20;6.85;;;;;;;24.55;nan;62310.50;5033191;28;20167;-65
2023/08/27 04:55:25;;;;;;;11.07;6.43;;;;;;;24.69;nan;62197.28;5033518;28;20183;-65
2023/08/27 04:57:51;;;;;;;9.70;6.25;;;;;;;24.66;nan;62262.38;5033060;28;20175;-65
2023/08/27 05:00:23;;;;;;;9.43;5.75;;;;;;;24.62;nan;62153.88;5032858;28;20290;-65
2023/08/27 05:02:49;;;;;;;9.45;6.13;;;;;;;24.51;nan;62162.22;5033509;28;20171;-65
2023/08/27 05:05:16;;;;;;;8.98;6.22;;;;;;;24.58;nan;62204.19;5030200;28;20187;-65
2023/08/27 05:07:42;;;;;;;10.13;6.32;;;;;;;24.74;nan;62203.00;5032136;28;20219;-65
2023/08/27 05:10:08;;;;;;;10.18;6.60;;;;;;;24.75;nan;62215.16;5032775;28;20593;-65
2023/08/27 05:12:33;;;;;;;10.88;6.63;;;;;;;24.77;nan;62310.97;5032167;28;20250;-65
2023/08/27 05:14:59;;;;;;;9.00;5.68;;;;;;;24.72;nan;62441.19;5032187;28;20310;-65
2023/08/27 05:17:24;;;;;;;10.02;6.30;;;;;;;24.78;nan;62265.06;5032537;28;20159;-65
2023/08/27 05:19:49;;;;;;;9.90;5.78;;;;;;;24.79;nan;62284.47;5032381;28;20197;-65
2023/08/27 05:22:15;;;;;;;9.55;6.57;;;;;;;24.71;nan;62432.19;5032366;28;20171;-65
2023/08/27 05:24:40;;;;;;;10.80;6.20;;;;;;;24.96;nan;62303.91;5032659;28;20317;-65
2023/08/27 05:27:06;;;;;;;11.95;6.88;;;;;;;24.85;nan;62367.72;5033204;28;20548;-66
2023/08/27 05:29:31;;;;;;;11.30;6.85;;;;;;;25.06;nan;62294.97;5037791;28;20175;-66
2023/08/27 05:31:57;;;;;;;12.20;6.72;;;;;;;24.98;nan;62232.97;5037001;28;20241;-66
2023/08/27 05:34:23;;;;;;;10.23;6.43;;;;;;;25.11;nan;62368.09;5031864;28;20183;-67
2023/08/27 05:36:48;;;;;;;11.77;6.75;;;;;;;25.09;nan;62439.06;5041203;28;20506;-66
2023/08/27 05:39:14;;;;;;;10.77;6.57;;;;;;;25.18;nan;62276.72;5042215;28;20234;-66
2023/08/27 05:41:40;;;;;;;10.60;6.88;;;;;;;25.40;nan;62311.69;5050598;28;20166;-66
2023/08/27 05:44:06;;;;;;;10.15;6.55;;;;;;;25.24;nan;62228.06;5043887;28;20270;-67
2023/08/27 05:46:31;;;;;;;10.43;6.47;;;;;;;25.35;nan;62306.56;5040541;28;20613;-67
2023/08/27 05:48:57;;;;;;;12.07;6.07;;;;;;;25.46;nan;62397.63;5040008;28;20197;-67
2023/08/27 05:51:22;;;;;;;10.55;6.43;;;;;;;25.68;nan;62553.13;5030597;28;20171;-66
2023/08/27 05:53:47;;;;;;;9.38;6.43;;;;;;;25.74;nan;62357.81;5031954;28;20546;-68
2023/08/27 05:56:13;;;;;;;10.65;6.28;;;;;;;25.66;nan;62346.06;5031334;28;20163;-68
2023/08/27 05:58:38;;;;;;;9.52;6.07;;;;;;;25.95;nan;62402.75;5041793;28;20217;-66
2023/08/27 06:01:04;;;;;;;9.15;6.43;;;;;;;26.08;nan;62540.16;5043245;28;20195;-66
2023/08/27 06:03:30;;;;;;;9.27;5.57;;;;;;;26.31;nan;62440.72;5037897;28;20600;-65
2023/08/27 06:05:55;;;;;;;9.25;6.70;;;;;;;26.36;nan;62546.56;5033051;28;20654;-66
2023/08/27 06:08:21;;;;;;;7.85;5.50;;;;;;;26.20;nan;62523.03;5031549;28;20235;-65
2023/08/27 06:10:47;;;;;;;8.48;5.95;;;;;;;26.21;nan;62355.94;5031249;28;20179;-65
2023/08/27 06:13:13;;;;;;;8.98;5.45;;;;;;;26.25;nan;62442.28;5031277;28;20187;-67
2023/08/27 06:15:38;;;;;;;8.88;6.10;;;;;;;26.12;nan;62536.88;5031385;28;20179;-66
2023/08/27 06:18:05;;;;;;;7.93;5.60;;;;;;;25.87;nan;62477.97;5030222;28;20183;-64
2023/08/27 06:20:31;;;;;;;8.30;5.70;;;;;;;26.21;nan;62416.19;5031605;28;20286;-67
2023/08/27 06:22:57;;;;;;;8.15;5.53;;;;;;;26.18;nan;62439.50;5031553;28;20308;-66
2023/08/27 06:25:23;;;;;;;10.15;6.03;;;;;;;25.63;nan;62421.16;5031502;28;20178;-64
2023/08/27 06:27:49;;;;;;;10.85;5.45;;;;;;;26.03;nan;62387.75;5031468;28;20185;-67
2023/08/27 06:30:14;;;;;;;7.90;5.63;;;;;;;26.34;nan;62657.00;5031182;28;20591;-66
2023/08/27 06:32:40;;;;;;;8.40;5.65;;;;;;;26.71;nan;62485.84;5031110;28;20222;-67
2023/08/27 06:35:06;;;;;;;9.00;5.13;;;;;;;26.88;nan;62510.56;5031256;28;20210;-64
2023/08/27 06:37:31;;;;;;;7.45;4.93;;;;;;;27.06;nan;62496.44;5036482;28;20191;-67
2023/08/27 06:39:56;;;;;;;8.00;5.68;;;;;;;26.71;nan;62601.25;5030824;28;20615;-65
2023/08/27 06:42:22;;;;;;;9.43;6.15;;;;;;;26.65;nan;62623.78;5030934;28;20249;-67
2023/08/27 06:44:47;;;;;;;9.95;6.00;;;;;;;26.31;nan;62427.63;5031182;28;20222;-64
2023/08/27 06:47:13;;;;;;;8.73;5.50;;;;;;;26.41;nan;62420.09;5033273;28;20561;-66
2023/08/27 06:49:38;;;;;;;7.32;5.10;;;;;;;26.76;nan;62512.56;5030856;28;20209;-66
2023/08/27 06:52:04;;;;;;;9.60;5.57;;;;;;;27.03;nan;62574.38;5031120;28;20186;-66
2023/08/27 06:54:30;;;;;;;7.55;5.10;;;;;;;27.07;nan;62694.97;5033559;28;20170;-66
2023/08/27 06:56:55;;;;;;;8.80;5.75;;;;;;;27.15;nan;62585.47;5035048;28;20175;-64
2023/08/27 06:59:21;;;;;;;8.57;5.63;;;;;;;27.44;nan;62707.34;5034915;28;20195;-67
2023/08/27 07:01:46;;;;;;;10.88;5.57;;;;;;;27.52;nan;62619.38;5034330;28;20172;-66
2023/08/27 07:04:13;;;;;;;7.97;5.40;;;;;;;27.63;nan;62627.31;5034766;28;20626;-66
2023/08/27 07:06:38;;;;;;;10.63;5.78;;;;;;;26.87;nan;62477.38;5034511;28;20262;-65
2023/08/27 07:09:05;;;;;;;7.85;5.68;;;;;;;26.90;nan;62504.97;5034848;28;20199;-66
2023/08/27 07:11:31;;;;;;;7.65;5.60;;;;;;;27.05;nan;62514.25;5034543;28;20530;-65
2023/08/27 07:13:57;;;;;;;11.10;5.72;;;;;;;27.27;nan;62606.50;5034558;28;20174;-67
2023/08/27 07:16:22;;;;;;;8.35;5.20;;;;;;;27.21;nan;62634.34;5033795;28;20233;-64
2023/08/27 07:18:47;;;;;;;9.27;5.55;;;;;;;27.33;nan;62576.63;5038374;28;20289;-66
2023/08/27 07:21:13;;;;;;;7.68;4.88;;;;;;;27.29;nan;62564.16;5043033;28;20180;-66
2023/08/27 07:23:38;;;;;;;8.05;5.70;;;;;;;26.88;nan;62458.09;5043187;28;20171;-66
2023/08/27 07:26:04;;;;;;;10.60;5.60;;;;;;;26.88;nan;62528.91;5032779;28;20202;-66
2023/08/27 07:28:30;;;;;;;9.50;6.22;;;;;;;26.95;nan;62479.22;5034296;28;20175;-64
2023/08/27 07:30:55;;;;;;;8.15;5.40;;;;;;;26.82;nan;62448.59;5033962;28;20228;-67
2023/08/27 07:33:21;;;;;;;8.75;5.55;;;;;;;27.11;nan;62549.97;5034514;28;20714;-66
2023/08/27 07:35:47;;;;;;;7.40;5.63;;;;;;;27.46;nan;62691.28;5032915;28;20187;-69
2023/08/27 07:38:12;;;;;;;8.38;5.53;;;;;;;27.37;nan;62696.72;5034217;28;20250;-65
2023/08/27 07:40:38;;;;;;;8.35;5.70;;;;;;;27.79;nan;62728.56;5033658;28;20254;-65
2023/08/27 07:43:04;;;;;;;8.25;5.65;;;;;;;28.13;nan;62856.94;5033981;28;20171;-67
2023/08/27 07:45:30;;;;;;;8.50;5.57;;;;;;;28.30;nan;62736.53;5034006;28;20188;-67
2023/08/27 07:47:55;;;;;;;7.40;5.30;;;;;;;28.37;nan;62721.47;5033994;28;20171;-67
2023/08/27 07:50:20;;;;;;;9.00;5.78;;;;;;;28.42;nan;62810.78;5034112;28;20195;-68
2023/08/27 07:52:46;;;;;;;8.10;5.35;;;;;;;28.47;nan;62806.00;5034117;28;20540;-65
2023/08/27 07:55:11;;;;;;;8.70;5.60;;;;;;;28.27;nan;62712.63;5033884;28;20179;-68
2023/08/27 07:57:37;;;;;;;11.13;5.68;;;;;;;28.51;nan;62952.59;5033667;28;20248;-66
2023/08/27 08:00:03;;;;;;;7.90;5.43;;;;;;;28.28;nan;62736.88;5033375;28;20664;-67
2023/08/27 08:02:29;;;;;;;7.53;5.72;;;;;;;28.20;nan;62764.50;5033698;28;20666;-65
2023/08/27 08:04:54;;;;;;;7.53;5.60;;;;;;;28.26;nan;62743.03;5033063;28;20255;-68
2023/08/27 08:07:20;;;;;;;8.45;5.90;;;;;;;28.19;nan;62689.75;5033404;28;20226;-66
2023/08/27 08:09:45;;;;;;;8.85;5.90;;;;;;;28.53;nan;62812.88;5033332;28;20167;-65
2023/08/27 08:12:11;;;;;;;8.80;5.72;;;;;;;28.46;nan;62850.13;5033303;28;20621;-66
2023/08/27 08:14:36;;;;;;;9.68;5.95;;;;;;;28.47;nan;62780.25;5033188;28;20258;-66
2023/08/27 08:17:01;;;;;;;9.68;5.45;;;;;;;28.68;nan;62803.75;5033753;28;20163;-68
2023/08/27 08:19:27;;;;;;;7.97;5.60;;;;;;;28.56;nan;62753.19;5033540;28;20191;-65
2023/08/27 08:21:52;;;;;;;9.27;5.80;;;;;;;28.30;nan;62710.25;5033227;28;20171;-68
2023/08/27 08:24:18;;;;;;;11.15;6.00;;;;;;;28.65;nan;62789.81;5033580;28;20172;-66
2023/08/27 08:26:43;;;;;;;8.85;4.93;;;;;;;28.77;nan;62805.63;5033492;28;20640;-69
2023/08/27 08:29:08;;;;;;;7.45;5.28;;;;;;;28.90;nan;62834.28;5033094;28;20184;-65
2023/08/27 08:31:34;;;;;;;7.03;5.28;;;;;;;28.99;nan;62823.00;5033651;28;20701;-67
2023/08/27 08:33:59;;;;;;;7.93;5.15;;;;;;;29.60;nan;62955.09;5033224;28;20552;-68
2023/08/27 08:36:25;;;;;;;9.48;5.30;;;;;;;29.95;nan;63058.03;5032933;28;20166;-66
2023/08/27 08:38:50;;;;;;;7.72;5.60;;;;;;;30.13;nan;63060.28;5033010;28;20233;-67
2023/08/27 08:41:22;;;;;;;9.48;5.55;;;;;;;30.05;nan;63019.44;5033006;28;20634;-64
2023/08/27 08:43:54;;;;;;;7.85;5.30;;;;;;;29.91;nan;63054.00;5032323;28;20689;-65
2023/08/27 08:46:20;;;;;;;7.90;5.00;;;;;;;30.17;nan;63025.31;5032902;28;20174;-64
2023/08/27 08:48:50;;;;;;;7.75;5.50;;;;;;;30.19;nan;63040.81;5032381;28;20171;-68
2023/08/27 08:51:22;;;;;;;8.40;5.05;;;;;;;30.15;nan;63075.78;5032882;28;20216;-66
2023/08/27 08:53:50;;;;;;;8.65;6.05;;;;;;;30.45;nan;63057.53;5032172;28;20642;-66
2023/08/27 08:56:24;;;;;;;8.45;5.72;;;;;;;30.46;nan;63061.34;5032202;28;20185;-66
2023/08/27 08:58:56;;;;;;;7.22;4.60;;;;;;;30.51;nan;63075.00;5031544;28;20194;-66
2023/08/27 09:01:22;;;;;;;7.32;4.78;;;;;;;30.92;nan;63144.78;5032716;28;20171;-65
2023/08/27 09:03:49;;;;;;;7.55;4.63;;;;;;;30.91;nan;63273.00;5031674;28;20557;-69
2023/08/27 09:06:21;;;;;;;7.65;4.78;;;;;;;29.96;nan;63117.19;5031875;28;20332;-66
2023/08/27 09:08:47;;;;;;;7.00;4.88;;;;;;;31.21;nan;63183.47;5032068;28;20317;-65
2023/08/27 09:11:17;;;;;;;8.60;4.95;;;;;;;31.25;nan;63190.16;5031411;28;20182;-67
2023/08/27 09:13:43;;;;;;;6.28;4.55;;;;;;;31.23;nan;63238.59;5032299;28;20191;-69
2023/08/27 09:16:09;;;;;;;7.35;4.90;;;;;;;30.92;nan;63126.31;5031409;28;20194;-65
2023/08/27 09:18:34;;;;;;;7.00;4.78;;;;;;;30.96;nan;63136.75;5032200;28;20594;-68
2023/08/27 09:21:00;;;;;;;6.50;4.78;;;;;;;31.19;nan;63165.31;5031998;28;20237;-68
2023/08/27 09:23:26;;;;;;;7.25;5.40;;;;;;;31.24;nan;63194.28;5031484;28;20183;-66
2023/08/27 09:25:59;;;;;;;6.47;4.85;;;;;;;31.65;nan;63267.97;5031792;28;20186;-67
2023/08/27 09:28:24;;;;;;;7.18;4.93;;;;;;;31.69;nan;63254.06;5031803;28;20163;-68
2023/08/27 09:30:51;;;;;;;7.50;4.43;;;;;;;31.92;nan;63431.31;5032063;28;20641;-66
2023/08/27 09:33:16;;;;;;;4.82;3.97;;;;;;;32.03;nan;63311.19;5031977;28;20167;-65
2023/08/27 09:35:42;;;;;;;6.13;4.15;;;;;;;32.08;nan;63300.50;5031023;28;20531;-68
2023/08/27 09:38:15;;;;;;;6.85;4.30;;;;;;;31.99;nan;63306.59;5030912;28;20186;-66
2023/08/27 09:40:41;;;;;;;6.97;4.32;;;;;;;32.18;nan;63331.16;5031921;28;20225;-66
2023/08/27 09:43:08;;;;;;;8.63;4.88;;;;;;;31.90;nan;63407.28;5032454;28;20661;-66
2023/08/27 09:45:35;;;;;;;6.43;4.50;;;;;;;31.99;nan;63317.75;5032014;28;20560;-64
2023/08/27 09:48:01;;;;;;;6.72;4.32;;;;;;;31.76;nan;63291.22;5031995;28;20167;-64
2023/08/27 09:50:30;;;;;;;7.65;4.20;;;;;;;31.84;nan;63393.00;5031408;28;20178;-67
2023/08/27 09:53:11;;;;;;;6.30;4.22;;;;;;;31.86;nan;63386.81;5032005;28;20245;-66
2023/08/27 09:55:37;;;;;;;7.40;4.65;;;;;;;31.71;nan;63340.41;5032042;28;20167;-67
2023/08/27 09:58:06;;;;;;;5.82;4.20;;;;;;;31.47;nan;63220.78;5031791;28;20159;-65
2023/08/27 10:00:33;;;;;;;5.57;4.10;;;;;;;31.54;nan;63255.84;5048243;28;20202;-67
2023/08/27 10:02:58;;;;;;;5.90;4.70;;;;;;;31.68;nan;63313.13;5051287;28;20171;-65
2023/08/27 10:05:33;;;;;;;6.82;4.22;;;;;;;31.70;nan;63294.31;5051178;28;20192;-65
2023/08/27 10:08:04;;;;;;;8.35;4.15;;;;;;;31.82;nan;63271.09;5051668;28;20217;-67
2023/08/27 10:10:31;;;;;;;6.03;4.03;;;;;;;31.98;nan;63377.44;5051293;28;20233;-67
2023/08/27 10:12:58;;;;;;;7.38;4.97;;;;;;;31.96;nan;63375.09;5051675;28;20216;-65
2023/08/27 10:15:26;;;;;;;7.28;4.53;;;;;;;31.73;nan;63332.69;5051369;28;20181;-68
2023/08/27 10:17:54;;;;;;;5.68;4.25;;;;;;;31.62;nan;63261.28;5051558;28;20235;-67
2023/08/27 10:20:20;;;;;;;8.38;5.10;;;;;;;31.47;nan;63253.06;5051374;28;20194;-67
2023/08/27 10:22:46;;;;;;;6.57;4.28;;;;;;;31.52;nan;63184.25;5051687;28;20193;-65
2023/08/27 10:25:16;;;;;;;6.97;4.40;;;;;;;31.47;nan;63223.41;5051356;28;20231;-68
2023/08/27 10:27:41;;;;;;;7.18;4.82;;;;;;;31.35;nan;63228.66;5052360;28;20652;-67
2023/08/27 10:30:09;;;;;;;6.65;4.57;;;;;;;31.39;nan;63243.84;5049076;28;20209;-67
2023/08/27 10:32:35;;;;;;;7.57;4.18;;;;;;;31.77;nan;63270.66;5041731;28;20654;-65
2023/08/27 10:35:05;;;;;;;7.97;4.35;;;;;;;31.90;nan;63383.50;5052272;28;20176;-65
2023/08/27 10:37:33;;;;;;;6.40;4.40;;;;;;;31.86;nan;63323.34;5055131;28;20653;-66
2023/08/27 10:40:00;;;;;;;6.38;4.38;;;;;;;31.68;nan;63274.06;5055446;28;20225;-68
2023/08/27 10:42:39;;;;;;;6.28;3.97;;;;;;;31.59;nan;63382.63;5055078;28;20291;-65
2023/08/27 10:45:21;;;;;;;6.75;4.20;;;;;;;31.72;nan;63387.09;5055384;28;20203;-65
2023/08/27 10:48:12;;;;;;;4.70;3.45;;;;;;;31.93;nan;63368.44;5055425;28;20194;-69
2023/08/27 10:50:46;;;;;;;5.38;3.40;;;;;;;32.01;nan;63343.28;5055516;28;20181;-65
2023/08/27 10:53:12;;;;;;;4.70;3.75;;;;;;;31.98;nan;63321.88;5055015;28;20193;-67
2023/08/27 10:55:40;;;;;;;5.75;3.75;;;;;;;31.72;nan;63286.63;5055427;28;20194;-67
2023/08/27 10:58:25;;;;;;;5.97;3.63;;;;;;;31.93;nan;63321.41;5055252;28;20586;-65
2023/08/27 11:01:00;;;;;;;5.60;3.72;;;;;;;32.17;nan;63401.44;5055001;28;20190;-67
2023/08/27 11:03:26;;;;;;;5.68;3.33;;;;;;;32.26;nan;63411.84;5054808;28;20194;-69
2023/08/27 11:06:13;;;;;;;6.60;3.85;;;;;;;31.96;nan;63459.16;5054740;28;20163;-68
2023/08/27 11:08:40;;;;;;;11.25;3.85;;;;;;;32.13;nan;63401.53;5054232;28;20174;-65
2023/08/27 11:11:15;;;;;;;6.32;3.92;;;;;;;32.29;nan;63396.78;5054692;28;20258;-65
2023/08/27 11:13:41;;;;;;;6.55;4.18;;;;;;;32.16;nan;63299.16;5054001;28;20590;-66
2023/08/27 11:16:16;;;;;;;10.35;4.47;;;;;;;32.29;nan;63308.84;5054453;28;20212;-65
2023/08/27 11:18:50;;;;;;;6.97;4.72;;;;;;;32.37;nan;63395.41;5054350;28;20275;-68
2023/08/27 11:21:25;;;;;;;10.73;6.85;;;;;;;32.45;nan;63412.03;5054294;28;20173;-69
2023/08/27 11:24:13;;;;;;;12.77;7.57;;;;;;;32.76;nan;63500.22;5054523;28;20219;-65
2023/08/27 11:26:40;;;;;;;12.90;6.43;;;;;;;32.92;nan;63467.81;5054268;28;20248;-67
2023/08/27 11:29:09;;;;;;;16.70;7.78;;;;;;;32.90;nan;63561.44;5054176;28;20174;-68
2023/08/27 11:31:37;;;;;;;10.75;5.47;;;;;;;32.94;nan;63655.56;5054460;28;20182;-67
2023/08/27 11:34:04;;;;;;;15.27;9.07;;;;;;;33.08;nan;63521.31;5054476;28;20197;-67
2023/08/27 11:36:30;;;;;;;13.50;7.45;;;;;;;33.22;nan;63558.72;5053960;28;20551;-68
2023/08/27 11:38:59;;;;;;;9.75;5.20;;;;;;;33.11;nan;63736.78;5053565;28;20172;-68
2023/08/27 11:41:24;;;;;;;13.55;7.68;;;;;;;32.80;nan;63489.53;5054132;28;20174;-65
2023/08/27 11:43:56;;;;;;;9.70;5.63;;;;;;;32.97;nan;63508.59;5054309;28;20178;-69
2023/08/27 11:46:25;;;;;;;14.55;7.55;;;;;;;33.23;nan;63567.25;5053926;28;20323;-69